createdAt,value
2022-10-06T00:01:04.011Z,27.40
2022-10-06T00:03:31.948Z,22.33
2022-10-06T00:06:01.938Z,34.30
2022-10-06T00:08:31.093Z,32.75
2022-10-06T00:10:59.116Z,29.80
2022-10-06T00:13:27.004Z,30.48
2022-10-06T00:15:55.005Z,26.17
2022-10-06T00:18:22.608Z,28.67
2022-10-06T00:20:55.312Z,26.73
2022-10-06T00:23:24.622Z,27.92
2022-10-06T00:25:52.146Z,26.60
2022-10-06T00:28:19.813Z,25.63
2022-10-06T00:30:47.796Z,31.85
2022-10-06T00:33:17.728Z,35.55
2022-10-06T00:35:46.221Z,36.30
2022-10-06T00:38:15.702Z,34.08
2022-10-06T00:40:50.743Z,29.70
2022-10-06T00:43:41.405Z,24.92
2022-10-06T00:46:11.142Z,26.77
2022-10-06T00:48:39.918Z,23.75
2022-10-06T00:51:07.663Z,22.25
2022-10-06T00:53:36.574Z,15.45
2022-10-06T00:56:05.584Z,20.77
2022-10-06T00:58:33.113Z,22.80
2022-10-06T01:01:00.881Z,27.10
2022-10-06T01:03:32.901Z,29.77
2022-10-06T01:06:03.592Z,24.73
2022-10-06T01:08:33.405Z,22.67
2022-10-06T01:11:01.114Z,24.40
2022-10-06T01:13:30.556Z,20.05
2022-10-06T01:16:04.699Z,25.25
2022-10-06T01:18:34.030Z,29.35
2022-10-06T01:21:08.039Z,24.67
2022-10-06T01:23:37.554Z,18.45
2022-10-06T01:26:09.989Z,21.85
2022-10-06T01:28:38.452Z,28.75
2022-10-06T01:31:07.489Z,36.95
2022-10-06T01:33:35.175Z,30.05
2022-10-06T01:36:02.715Z,30.08
2022-10-06T01:38:30.708Z,25.77
2022-10-06T01:41:00.043Z,21.23
2022-10-06T01:43:28.934Z,24.15
2022-10-06T01:45:57.057Z,20.15
2022-10-06T01:48:26.101Z,23.58
2022-10-06T01:50:54.374Z,32.83
2022-10-06T01:53:22.863Z,23.00
2022-10-06T01:55:50.422Z,22.10
2022-10-06T01:58:19.301Z,24.05
2022-10-06T02:00:46.835Z,20.95
2022-10-06T02:03:14.345Z,20.33
2022-10-06T02:05:41.839Z,23.20
2022-10-06T02:08:09.540Z,21.88
2022-10-06T02:10:37.135Z,22.02
2022-10-06T02:13:05.033Z,32.75
2022-10-06T02:15:34.030Z,33.95
2022-10-06T02:18:01.540Z,25.38
2022-10-06T02:20:29.091Z,21.77
2022-10-06T02:22:56.710Z,22.13
2022-10-06T02:25:24.228Z,18.33
2022-10-06T02:27:51.756Z,21.20
2022-10-06T02:30:19.405Z,15.43
2022-10-06T02:32:48.423Z,15.07
2022-10-06T02:35:16.002Z,15.18
2022-10-06T02:37:43.566Z,15.32
2022-10-06T02:40:11.395Z,13.60
2022-10-06T02:42:39.707Z,14.93
2022-10-06T02:45:07.893Z,16.95
2022-10-06T02:47:35.860Z,18.65
2022-10-06T02:50:07.491Z,19.00
2022-10-06T02:52:36.654Z,19.65
2022-10-06T02:55:04.626Z,19.50
2022-10-06T02:57:32.712Z,22.10
2022-10-06T03:00:00.334Z,25.00
2022-10-06T03:02:30.653Z,26.75
2022-10-06T03:04:58.271Z,26.77
2022-10-06T03:07:27.168Z,26.63
2022-10-06T03:09:55.223Z,18.02
2022-10-06T03:12:23.028Z,19.05
2022-10-06T03:14:50.679Z,18.53
2022-10-06T03:17:18.195Z,16.85
2022-10-06T03:19:45.691Z,21.63
2022-10-06T03:22:13.952Z,16.23
2022-10-06T03:24:42.783Z,15.75
2022-10-06T03:27:10.323Z,18.93
2022-10-06T03:29:37.821Z,19.77
2022-10-06T03:32:05.468Z,18.60
2022-10-06T03:34:32.978Z,18.27
2022-10-06T03:37:00.601Z,17.58
2022-10-06T03:39:28.113Z,19.50
2022-10-06T03:41:57.002Z,18.93
2022-10-06T03:44:24.551Z,19.15
2022-10-06T03:46:52.082Z,19.37
2022-10-06T03:49:19.616Z,24.40
2022-10-06T03:51:47.104Z,19.05
2022-10-06T03:54:15.023Z,15.47
2022-10-06T03:56:43.080Z,21.77
2022-10-06T03:59:13.906Z,24.60
2022-10-06T04:01:43.552Z,27.33
2022-10-06T04:04:11.918Z,37.30
2022-10-06T04:06:41.720Z,33.50
2022-10-06T04:09:15.014Z,36.30
2022-10-06T04:11:44.693Z,36.78
2022-10-06T04:14:15.292Z,37.40
2022-10-06T04:16:45.225Z,27.38
2022-10-06T04:19:14.433Z,28.17
2022-10-06T04:21:43.578Z,32.55
2022-10-06T04:24:12.023Z,30.35
2022-10-06T04:26:41.547Z,29.45
2022-10-06T04:29:09.093Z,36.80
2022-10-06T04:31:40.884Z,39.80
2022-10-06T04:34:09.192Z,41.67
2022-10-06T04:36:39.604Z,41.53
2022-10-06T04:39:10.561Z,37.40
2022-10-06T04:41:40.153Z,35.15
2022-10-06T04:44:08.880Z,36.55
2022-10-06T04:46:43.258Z,32.50
2022-10-06T04:49:17.952Z,50.88
2022-10-06T04:51:47.500Z,43.15
2022-10-06T04:54:15.269Z,37.35
2022-10-06T04:56:42.819Z,43.72
2022-10-06T04:59:10.334Z,41.08
2022-10-06T05:01:39.220Z,36.78
2022-10-06T05:04:07.531Z,37.38
2022-10-06T05:06:37.236Z,42.15
2022-10-06T05:09:06.348Z,39.80
2022-10-06T05:11:34.231Z,37.05
2022-10-06T05:14:01.960Z,33.22
2022-10-06T05:16:31.693Z,30.52
2022-10-06T05:19:00.957Z,31.55
2022-10-06T05:21:30.299Z,32.45
2022-10-06T05:23:58.094Z,28.73
2022-10-06T05:26:27.665Z,27.65
2022-10-06T05:28:55.256Z,27.48
2022-10-06T05:31:24.275Z,26.63
2022-10-06T05:33:51.959Z,26.95
2022-10-06T05:36:22.670Z,39.67
2022-10-06T05:38:50.472Z,33.28
2022-10-06T05:41:19.449Z,33.05
2022-10-06T05:43:47.184Z,40.75
2022-10-06T05:46:17.640Z,39.60
2022-10-06T05:48:47.289Z,41.90
2022-10-06T05:51:15.505Z,35.75
2022-10-06T05:53:44.675Z,39.45
2022-10-06T05:56:13.794Z,38.70
2022-10-06T05:58:44.279Z,36.75
2022-10-06T06:01:13.753Z,33.20
2022-10-06T06:03:43.913Z,27.40
2022-10-06T06:06:20.646Z,26.35
2022-10-06T06:08:53.675Z,32.65
2022-10-06T06:11:25.221Z,27.08
2022-10-06T06:13:52.994Z,28.45
2022-10-06T06:16:19.591Z,29.85
2022-10-06T06:18:47.190Z,22.33
2022-10-06T06:21:14.716Z,22.33
2022-10-06T06:23:46.226Z,30.83
2022-10-06T06:26:17.278Z,34.50
2022-10-06T06:28:46.272Z,36.35
2022-10-06T06:31:20.066Z,34.97
2022-10-06T06:33:49.321Z,34.97
2022-10-06T06:36:18.723Z,21.50
2022-10-06T06:38:51.868Z,19.27
2022-10-06T06:41:23.570Z,23.08
2022-10-06T06:43:52.848Z,30.08
2022-10-06T06:46:25.011Z,34.08
2022-10-06T06:48:52.764Z,19.38
2022-10-06T06:51:23.887Z,26.60
2022-10-06T06:53:52.023Z,24.52
2022-10-06T06:56:22.207Z,26.13
2022-10-06T06:58:50.177Z,23.77
2022-10-06T07:01:19.703Z,22.63
2022-10-06T07:03:57.491Z,24.55
2022-10-06T07:06:28.580Z,32.78
2022-10-06T07:08:57.685Z,34.45
2022-10-06T07:11:28.381Z,48.30
2022-10-06T07:13:58.030Z,64.82
2022-10-06T07:16:43.483Z,63.67
2022-10-06T07:19:29.847Z,17.55
2022-10-06T07:22:31.940Z,14.18
2022-10-06T07:25:11.622Z,11.38
2022-10-06T07:27:43.391Z,10.95
2022-10-06T07:30:13.625Z,11.00
2022-10-06T07:32:41.151Z,9.82
2022-10-06T07:35:09.418Z,14.07
2022-10-06T07:37:37.073Z,13.82
2022-10-06T07:40:06.748Z,17.05
2022-10-06T07:42:47.951Z,12.65
2022-10-06T07:45:36.830Z,18.70
2022-10-06T07:48:05.257Z,16.05
2022-10-06T07:50:33.211Z,18.20
2022-10-06T07:53:04.856Z,20.55
2022-10-06T07:55:32.555Z,11.55
2022-10-06T07:58:00.046Z,20.45
2022-10-06T08:00:29.049Z,31.15
2022-10-06T08:02:56.603Z,27.45
2022-10-06T08:05:24.153Z,41.75
2022-10-06T08:07:53.016Z,27.05
2022-10-06T08:10:21.065Z,17.58
2022-10-06T08:12:48.595Z,18.95
2022-10-06T08:15:16.181Z,22.20
2022-10-06T08:17:45.573Z,20.65
2022-10-06T08:20:13.996Z,24.42
2022-10-06T08:22:41.895Z,8.02
2022-10-06T08:25:11.038Z,8.13
2022-10-06T08:27:40.357Z,11.75
2022-10-06T08:30:11.146Z,8.10
2022-10-06T08:32:39.016Z,9.18
2022-10-06T08:35:08.306Z,10.25
2022-10-06T08:37:35.881Z,9.93
2022-10-06T08:40:03.503Z,9.77
2022-10-06T08:42:41.361Z,11.15
2022-10-06T08:45:15.634Z,14.18
2022-10-06T08:47:53.188Z,23.20
2022-10-06T08:50:25.950Z,20.58
2022-10-06T08:53:05.271Z,10.73
2022-10-06T08:55:39.387Z,9.88
2022-10-06T08:58:20.996Z,15.05
2022-10-06T09:00:49.905Z,15.38
2022-10-06T09:03:23.699Z,16.50
2022-10-06T09:05:58.007Z,26.88
2022-10-06T09:08:41.708Z,21.67
2022-10-06T09:11:26.140Z,11.57
2022-10-06T09:13:59.734Z,11.55
2022-10-06T09:16:30.553Z,13.35
2022-10-06T09:19:08.961Z,20.08
2022-10-06T09:21:42.150Z,13.73
2022-10-06T09:24:14.969Z,18.60
2022-10-06T09:26:45.289Z,18.77
2022-10-06T09:29:13.939Z,14.02
2022-10-06T09:31:43.151Z,18.42
2022-10-06T09:34:21.963Z,26.30
2022-10-06T09:37:02.986Z,21.05
2022-10-06T09:39:36.882Z,37.78
2022-10-06T09:42:07.827Z,42.97
2022-10-06T09:44:44.965Z,18.25
2022-10-06T09:47:39.203Z,13.98
2022-10-06T09:50:17.423Z,15.80
2022-10-06T09:53:04.371Z,9.30
2022-10-06T09:55:41.225Z,26.73
2022-10-06T09:58:20.414Z,22.88
2022-10-06T10:00:52.871Z,12.32
2022-10-06T10:03:21.578Z,17.50
2022-10-06T10:05:51.172Z,13.73
2022-10-06T10:08:23.055Z,17.02
2022-10-06T10:10:52.070Z,8.65
2022-10-06T10:13:21.893Z,8.18
2022-10-06T10:15:53.506Z,10.27
2022-10-06T10:18:26.631Z,8.20
2022-10-06T10:20:57.546Z,14.00
2022-10-06T10:23:32.031Z,27.67
2022-10-06T10:26:18.471Z,31.02
2022-10-06T10:29:07.232Z,36.95
2022-10-06T10:31:43.664Z,40.17
2022-10-06T10:34:26.377Z,28.20
2022-10-06T10:37:00.130Z,45.10
2022-10-06T10:39:34.469Z,55.10
2022-10-06T10:42:10.587Z,44.45
2022-10-06T10:44:44.443Z,32.65
2022-10-06T10:47:20.172Z,57.42
2022-10-06T10:49:58.625Z,23.65
2022-10-06T10:52:30.286Z,23.75
2022-10-06T10:55:06.799Z,38.63
2022-10-06T10:57:38.479Z,43.63
2022-10-06T11:00:08.453Z,17.20
2022-10-06T11:02:38.254Z,30.67
2022-10-06T11:05:15.978Z,35.28
2022-10-06T11:07:52.588Z,14.93
2022-10-06T11:10:26.042Z,28.08
2022-10-06T11:13:14.872Z,39.38
2022-10-06T11:15:55.110Z,22.70
2022-10-06T11:18:37.389Z,33.47
2022-10-06T11:21:12.112Z,28.83
2022-10-06T11:23:50.843Z,2.95
2022-10-06T11:26:30.078Z,5.45
2022-10-06T11:29:05.393Z,4.03
2022-10-06T11:31:37.407Z,4.40
2022-10-06T11:34:07.300Z,6.00
2022-10-06T11:36:42.735Z,3.45
2022-10-06T11:39:22.071Z,3.97
2022-10-06T11:41:58.750Z,4.15
2022-10-06T11:44:32.581Z,4.70
2022-10-06T11:47:06.180Z,3.72
2022-10-06T11:49:55.894Z,3.20
2022-10-06T11:52:55.229Z,5.10
2022-10-06T11:55:26.250Z,2.90
2022-10-06T12:01:04.019Z,3.17
2022-10-06T12:04:05.469Z,3.33
2022-10-06T12:06:55.941Z,3.03
2022-10-06T12:09:52.390Z,4.07
2022-10-06T12:13:06.201Z,5.13
2022-10-06T12:18:52.967Z,4.15
2022-10-06T12:21:35.723Z,3.50
2022-10-06T12:24:18.438Z,2.92
2022-10-06T12:27:00.027Z,3.28
2022-10-06T12:29:39.036Z,4.07
2022-10-06T12:32:20.848Z,3.05
2022-10-06T12:34:58.200Z,3.40
2022-10-06T12:37:42.460Z,4.90
2022-10-06T12:40:51.533Z,3.42
2022-10-06T12:43:32.342Z,5.68
2022-10-06T12:46:04.149Z,4.53
2022-10-06T12:48:40.640Z,2.80
2022-10-06T12:51:23.458Z,2.53
2022-10-06T12:54:00.752Z,5.22
2022-10-06T12:56:31.696Z,3.50
2022-10-06T12:58:59.654Z,4.97
2022-10-06T13:01:28.184Z,4.82
2022-10-06T13:03:57.135Z,2.47
2022-10-06T13:06:26.687Z,2.92
2022-10-06T13:09:06.907Z,2.45
2022-10-06T13:11:34.660Z,2.53
2022-10-06T13:14:10.552Z,2.50
2022-10-06T13:16:40.746Z,3.85
2022-10-06T13:19:18.249Z,2.88
2022-10-06T13:21:46.538Z,2.30
2022-10-06T13:24:16.751Z,3.20
2022-10-06T13:26:44.414Z,2.53
2022-10-06T13:29:21.715Z,2.42
2022-10-06T13:31:52.994Z,6.63
2022-10-06T13:34:29.062Z,3.47
2022-10-06T13:36:57.348Z,2.10
2022-10-06T13:39:26.959Z,4.60
2022-10-06T13:41:58.386Z,2.97
2022-10-06T13:44:31.763Z,2.30
2022-10-06T13:47:02.209Z,3.05
2022-10-06T13:49:34.398Z,4.50
2022-10-06T13:52:10.010Z,4.60
2022-10-06T13:54:42.751Z,4.38
2022-10-06T13:57:39.598Z,3.47
2022-10-06T14:00:17.583Z,3.20
2022-10-06T14:02:46.553Z,2.80
2022-10-06T14:05:29.334Z,3.03
2022-10-06T14:08:00.657Z,5.07
2022-10-06T14:10:32.725Z,2.85
2022-10-06T14:13:01.875Z,2.97
2022-10-06T14:15:32.075Z,3.35
2022-10-06T14:18:02.321Z,3.58
2022-10-06T14:20:45.842Z,3.85
2022-10-06T14:23:39.907Z,4.47
2022-10-06T14:26:08.071Z,3.30
2022-10-06T14:28:35.646Z,3.35
2022-10-06T14:31:03.306Z,2.67
2022-10-06T14:33:31.095Z,3.10
2022-10-06T14:35:59.964Z,3.35
2022-10-06T14:38:27.465Z,4.18
2022-10-06T14:40:55.030Z,5.10
2022-10-06T14:43:22.537Z,2.67
2022-10-06T14:45:50.068Z,3.00
2022-10-06T14:48:17.955Z,2.58
2022-10-06T14:50:46.713Z,2.92
2022-10-06T14:53:17.321Z,3.15
2022-10-06T14:55:45.301Z,5.18
2022-10-06T14:58:13.232Z,3.30
2022-10-06T15:00:43.056Z,3.58
2022-10-06T15:03:10.907Z,3.30
2022-10-06T15:05:59.263Z,4.07
2022-10-06T15:08:27.681Z,2.83
2022-10-06T15:10:55.432Z,2.83
2022-10-06T15:13:22.995Z,3.42
2022-10-06T15:15:58.403Z,3.25
2022-10-06T15:18:26.427Z,2.70
2022-10-06T15:20:54.073Z,3.08
2022-10-06T15:23:21.603Z,2.88
2022-10-06T15:26:10.209Z,4.57
2022-10-06T15:28:55.386Z,3.00
2022-10-06T15:31:24.640Z,3.38
2022-10-06T15:33:53.394Z,3.30
2022-10-06T15:36:23.624Z,4.25
2022-10-06T15:38:51.197Z,5.13
2022-10-06T15:41:20.452Z,3.97
2022-10-06T15:43:58.168Z,3.60
2022-10-06T15:46:27.672Z,3.42
2022-10-06T15:48:58.893Z,4.30
2022-10-06T15:51:26.828Z,3.90
2022-10-06T15:53:54.384Z,4.47
2022-10-06T15:56:23.308Z,2.88
2022-10-06T15:58:50.856Z,2.97
2022-10-06T16:01:40.586Z,3.85
2022-10-06T16:04:16.032Z,2.95
2022-10-06T16:06:50.510Z,4.03
2022-10-06T16:09:19.645Z,3.47
2022-10-06T16:11:48.860Z,7.47
2022-10-06T16:14:17.084Z,8.43
2022-10-06T16:16:46.169Z,8.18
2022-10-06T16:19:13.837Z,11.25
2022-10-06T16:21:42.073Z,8.18
2022-10-06T16:24:10.093Z,7.03
2022-10-06T16:26:37.889Z,8.02
2022-10-06T16:29:06.771Z,8.32
2022-10-06T16:31:34.441Z,7.63
2022-10-06T16:34:02.008Z,20.58
2022-10-06T16:36:29.538Z,50.88
2022-10-06T16:38:57.320Z,36.58
2022-10-06T16:41:25.495Z,43.22
2022-10-06T16:43:54.380Z,32.83
2022-10-06T16:46:25.015Z,34.95
2022-10-06T16:48:54.027Z,35.08
2022-10-06T16:51:23.301Z,34.05
2022-10-06T16:53:52.512Z,30.70
2022-10-06T16:56:21.680Z,38.55
2022-10-06T16:58:53.308Z,35.58
2022-10-06T17:01:24.771Z,38.10
2022-10-06T17:03:59.216Z,42.05
2022-10-06T17:06:27.107Z,38.40
2022-10-06T17:08:54.809Z,34.42
2022-10-06T17:11:24.861Z,52.80
2022-10-06T17:13:54.829Z,43.47
2022-10-06T17:16:25.767Z,41.75
2022-10-06T17:18:55.027Z,35.30
2022-10-06T17:21:44.146Z,35.50
2022-10-06T17:24:10.537Z,35.97
2022-10-06T17:26:40.139Z,41.78
2022-10-06T17:29:14.826Z,47.17
2022-10-06T17:31:44.928Z,45.45
2022-10-06T17:34:18.211Z,41.80
2022-10-06T17:36:49.111Z,42.13
2022-10-06T17:39:18.104Z,42.67
2022-10-06T17:41:46.842Z,45.35
2022-10-06T17:44:22.285Z,44.25
2022-10-06T17:46:52.437Z,37.05
2022-10-06T17:49:21.960Z,38.20
2022-10-06T17:51:51.329Z,39.13
2022-10-06T17:54:21.271Z,39.22
2022-10-06T17:56:50.281Z,28.80
2022-10-06T17:59:22.071Z,24.45
2022-10-06T18:01:52.096Z,32.15
2022-10-06T18:04:20.314Z,24.10
2022-10-06T18:06:48.497Z,23.75
2022-10-06T18:09:16.891Z,25.48
2022-10-06T18:11:47.747Z,30.85
2022-10-06T18:14:17.028Z,34.80
2022-10-06T18:16:46.694Z,32.47
2022-10-06T18:19:18.137Z,41.72
2022-10-06T18:21:48.085Z,34.78
2022-10-06T18:24:17.710Z,26.77
2022-10-06T18:26:48.214Z,27.92
2022-10-06T18:29:17.062Z,25.55
2022-10-06T18:31:45.722Z,26.38
2022-10-06T18:37:02.710Z,26.92
2022-10-06T18:39:31.896Z,34.72
2022-10-06T18:42:02.584Z,30.10
2022-10-06T18:44:47.835Z,26.25
2022-10-06T18:47:32.964Z,24.52
2022-10-06T18:50:01.877Z,31.65
2022-10-06T18:52:29.400Z,63.88
2022-10-06T18:54:56.914Z,58.88
2022-10-06T18:57:27.709Z,45.28
2022-10-06T18:59:55.610Z,40.60
2022-10-06T19:02:23.312Z,36.85
2022-10-06T19:04:50.866Z,33.55
2022-10-06T19:07:19.715Z,31.48
2022-10-06T19:09:47.528Z,38.67
2022-10-06T19:12:15.195Z,34.30
2022-10-06T19:14:47.554Z,40.90
2022-10-06T19:17:16.865Z,35.72
2022-10-06T19:19:46.140Z,30.17
2022-10-06T19:22:14.800Z,27.48
2022-10-06T19:24:45.247Z,31.10
2022-10-06T19:27:15.829Z,27.60
2022-10-06T19:29:45.963Z,22.50
2022-10-06T19:32:17.123Z,28.58
2022-10-06T19:34:45.218Z,27.20
2022-10-06T19:37:12.962Z,26.95
2022-10-06T19:39:43.782Z,36.88
2022-10-06T19:42:29.848Z,35.30
2022-10-06T19:44:57.597Z,31.08
2022-10-06T19:47:25.460Z,39.45
2022-10-06T19:49:57.838Z,53.05
2022-10-06T19:52:26.589Z,40.60
2022-10-06T19:54:55.506Z,36.22
2022-10-06T19:57:23.123Z,28.30
2022-10-06T19:59:51.606Z,40.15
2022-10-06T20:02:19.195Z,38.88
2022-10-06T20:04:46.733Z,33.85
2022-10-06T20:07:14.254Z,25.45
2022-10-06T20:09:41.871Z,33.63
2022-10-06T20:12:10.760Z,29.48
2022-10-06T20:14:38.633Z,39.55
2022-10-06T20:17:06.215Z,60.75
2022-10-06T20:19:34.539Z,41.73
2022-10-06T20:22:02.077Z,38.63
2022-10-06T20:24:31.752Z,27.05
2022-10-06T20:26:59.306Z,28.45
2022-10-06T20:29:28.423Z,31.23
2022-10-06T20:31:58.804Z,32.55
2022-10-06T20:34:31.491Z,51.70
2022-10-06T20:37:01.799Z,45.85
2022-10-06T20:39:48.553Z,35.38
2022-10-06T20:42:16.308Z,25.10
2022-10-06T20:44:45.417Z,24.83
2022-10-06T20:47:13.725Z,29.75
2022-10-06T20:49:42.274Z,28.58
2022-10-06T20:52:09.849Z,37.45
2022-10-06T20:54:37.669Z,40.10
2022-10-06T20:57:07.120Z,35.22
2022-10-06T20:59:35.446Z,32.23
2022-10-06T21:02:05.352Z,28.13
2022-10-06T21:04:34.866Z,33.23
2022-10-06T21:07:05.831Z,21.33
2022-10-06T21:09:33.625Z,18.10
2022-10-06T21:12:02.469Z,19.47
2022-10-06T21:14:30.131Z,21.83
2022-10-06T21:16:57.763Z,22.27
2022-10-06T21:19:29.854Z,26.00
2022-10-06T21:21:57.527Z,22.10
2022-10-06T21:24:25.337Z,23.40
2022-10-06T21:26:53.073Z,21.50
2022-10-06T21:29:21.119Z,20.03
2022-10-06T21:31:48.848Z,18.53
2022-10-06T21:34:16.666Z,41.97
2022-10-06T21:36:45.844Z,23.67
2022-10-06T21:39:14.343Z,26.77
2022-10-06T21:41:42.296Z,34.53
2022-10-06T21:44:11.546Z,35.90
2022-10-06T21:46:41.858Z,45.40
2022-10-06T21:49:12.659Z,30.43
2022-10-06T21:51:41.587Z,33.77
2022-10-06T21:54:11.125Z,35.97
2022-10-06T21:56:40.013Z,34.67
2022-10-06T21:59:08.638Z,54.50
2022-10-06T22:01:38.013Z,84.67
2022-10-06T22:04:06.334Z,49.17
2022-10-06T22:06:35.701Z,30.70
2022-10-06T22:09:05.108Z,29.60
2022-10-06T22:11:36.504Z,24.80
2022-10-06T22:14:06.246Z,34.63
2022-10-06T22:16:36.219Z,35.83
2022-10-06T22:19:06.311Z,25.83
2022-10-06T22:21:35.627Z,36.40
2022-10-06T22:24:05.424Z,62.27
2022-10-06T22:26:37.767Z,55.13
2022-10-06T22:29:07.765Z,21.77
2022-10-06T22:31:35.766Z,21.70
2022-10-06T22:34:05.394Z,19.83
2022-10-06T22:36:34.108Z,21.30
2022-10-06T22:39:01.882Z,26.47
2022-10-06T22:41:30.213Z,20.23
2022-10-06T22:44:00.363Z,21.73
2022-10-06T22:46:30.556Z,23.10
2022-10-06T22:48:58.567Z,25.60
2022-10-06T22:51:26.549Z,19.90
2022-10-06T22:53:57.909Z,20.03
2022-10-06T22:56:26.862Z,21.63
2022-10-06T22:58:54.534Z,25.20
2022-10-06T23:01:23.539Z,35.30
2022-10-06T23:03:51.170Z,29.33
2022-10-06T23:06:19.171Z,47.90
2022-10-06T23:08:46.874Z,56.83
2022-10-06T23:11:16.390Z,86.30
2022-10-06T23:13:44.787Z,29.67
2022-10-06T23:16:14.144Z,44.73
2022-10-06T23:18:44.347Z,26.33
2022-10-06T23:21:18.907Z,44.20
2022-10-06T23:23:47.112Z,60.03
2022-10-06T23:26:16.832Z,67.87
2022-10-06T23:28:44.618Z,36.53
2022-10-06T23:31:12.873Z,49.80
2022-10-06T23:33:40.579Z,77.67
2022-10-06T23:36:11.632Z,42.53
2022-10-06T23:38:40.399Z,63.17
2022-10-06T23:41:08.775Z,46.33
2022-10-06T23:43:36.521Z,42.37
2022-10-06T23:46:05.062Z,34.40
2022-10-06T23:48:32.787Z,24.30
2022-10-06T23:51:02.223Z,19.97
2022-10-06T23:53:32.850Z,41.43
2022-10-06T23:56:00.703Z,23.40
2022-10-06T23:58:29.055Z,27.17
